Time,TemperatureF,DewpointF,PressureIn,WindDirection,WindDirectionDegrees,WindSpeedMPH,WindSpeedGustMPH,Humidity,HourlyPrecipIn,Conditions,Clouds,dailyrainin,SoftwareType,DateUTC
2013-07-23 00:01:00,85.2,87.2,30.10,South,180,0.0,0.0,69,0.00,,,0.00,,2013-07-23 04:01:00,
2013-07-23 00:06:00,85.3,87.2,30.10,SSE,157,1.1,1.8,70,0.00,,,0.00,,2013-07-23 04:06:00,
2013-07-23 00:11:00,85.3,87.1,30.10,SSE,157,0.0,0.9,70,0.00,,,0.00,,2013-07-23 04:11:00,
2013-07-23 00:16:00,85.2,87.2,30.10,SSE,157,0.0,0.0,70,0.00,,,0.00,,2013-07-23 04:16:00,
2013-07-23 00:21:00,85.1,87.1,30.10,WSW,247,1.6,3.4,70,0.00,,,0.00,,2013-07-23 04:21:00,
2013-07-23 00:26:00,85.0,87.1,30.10,West,270,2.7,2.9,70,0.00,,,0.00,,2013-07-23 04:26:00,
2013-07-23 00:31:00,84.8,87.1,30.10,WSW,247,0.0,0.0,70,0.00,,,0.00,,2013-07-23 04:31:00,
2013-07-23 00:36:00,84.7,87.0,30.09,SSW,202,0.0,0.9,71,0.00,,,0.00,,2013-07-23 04:36:00,
2013-07-23 00:41:00,84.6,87.1,30.09,SSW,202,0.0,2.7,71,0.00,,,0.00,,2013-07-23 04:41:00,
2013-07-23 00:46:00,84.7,87.1,30.09,SSW,202,0.0,0.0,71,0.00,,,0.00,,2013-07-23 04:46:00,
2013-07-23 00:51:00,84.4,87.0,30.09,SSW,202,2.0,3.4,72,0.00,,,0.00,,2013-07-23 04:51:00,
2013-07-23 00:56:00,84.3,87.1,30.09,SSW,202,0.0,0.0,72,0.00,,,0.00,,2013-07-23 04:56:00,
2013-07-23 01:01:00,84.3,87.0,30.09,SW,225,0.0,0.0,72,0.00,,,0.00,,2013-07-23 05:01:00,
2013-07-23 01:06:00,84.2,87.0,30.09,SW,225,2.2,2.2,72,0.00,,,0.00,,2013-07-23 05:06:00,
2013-07-23 01:11:00,84.0,87.0,30.09,WSW,247,1.6,3.6,73,0.00,,,0.00,,2013-07-23 05:11:00,
2013-07-23 01:16:00,83.9,87.0,30.09,SW,225,3.1,3.1,73,0.00,,,0.00,,2013-07-23 05:16:00,
2013-07-23 01:21:00,83.9,87.0,30.09,SSW,202,3.1,3.4,73,0.00,,,0.00,,2013-07-23 05:21:00,
2013-07-23 01:26:00,83.8,86.9,30.09,South,180,0.0,3.1,73,0.00,,,0.00,,2013-07-23 05:26:00,
2013-07-23 01:31:00,83.9,86.9,30.09,SSW,202,1.8,2.2,73,0.00,,,0.00,,2013-07-23 05:31:00,
2013-07-23 01:36:00,83.9,86.9,30.09,South,180,1.6,3.6,73,0.00,,,0.00,,2013-07-23 05:36:00,
2013-07-23 01:41:00,84.0,86.9,30.08,South,180,1.6,3.4,74,0.00,,,0.00,,2013-07-23 05:41:00,
2013-07-23 01:46:00,84.0,86.9,30.08,South,180,0.0,2.5,74,0.00,,,0.00,,2013-07-23 05:46:00,
2013-07-23 01:51:00,84.0,86.9,30.08,South,180,0.9,2.7,73,0.00,,,0.00,,2013-07-23 05:51:00,
2013-07-23 01:56:00,83.9,86.9,30.08,SSW,202,3.4,3.6,73,0.00,,,0.00,,2013-07-23 05:56:00,
2013-07-23 02:01:00,84.0,86.9,30.08,South,180,0.0,0.0,74,0.00,,,0.00,,2013-07-23 06:01:00,
2013-07-23 02:06:00,83.9,86.8,30.07,SSW,202,0.0,2.5,74,0.00,,,0.00,,2013-07-23 06:06:00,
2013-07-23 02:11:00,83.8,86.9,30.07,South,180,0.0,0.0,74,0.00,,,0.00,,2013-07-23 06:11:00,
2013-07-23 02:16:00,83.9,86.8,30.07,SSE,157,1.1,3.4,74,0.00,,,0.00,,2013-07-23 06:16:00,
2013-07-23 02:21:00,83.8,86.8,30.08,SSE,157,0.0,0.0,74,0.00,,,0.00,,2013-07-23 06:21:00,
2013-07-23 02:26:00,83.8,86.8,30.07,South,180,0.0,0.0,74,0.00,,,0.00,,2013-07-23 06:26:00,
2013-07-23 02:31:00,83.8,86.8,30.07,South,180,0.0,0.0,74,0.00,,,0.00,,2013-07-23 06:31:00,
2013-07-23 02:36:00,83.8,86.8,30.07,South,180,1.8,3.6,74,0.00,,,0.00,,2013-07-23 06:36:00,
2013-07-23 02:41:00,83.8,86.8,30.07,SSE,157,2.5,2.7,75,0.00,,,0.00,,2013-07-23 06:41:00,
2013-07-23 02:47:00,83.7,86.8,30.07,SSE,157,2.0,3.1,75,0.00,,,0.00,,2013-07-23 06:47:00,
2013-07-23 02:52:00,83.6,86.7,30.07,South,180,1.3,3.6,75,0.00,,,0.00,,2013-07-23 06:52:00,
2013-07-23 02:56:00,83.5,86.8,30.07,SSE,157,0.9,3.6,75,0.00,,,0.00,,2013-07-23 06:56:00,
2013-07-23 03:01:00,83.5,86.8,30.07,South,180,3.8,3.8,75,0.00,,,0.00,,2013-07-23 07:01:00,
2013-07-23 03:06:00,83.5,86.8,30.07,South,180,4.5,4.9,75,0.00,,,0.00,,2013-07-23 07:06:00,
2013-07-23 03:11:00,83.4,86.7,30.07,SSW,202,2.9,2.9,75,0.00,,,0.00,,2013-07-23 07:11:00,
2013-07-23 03:16:00,83.4,86.7,30.07,SSW,202,3.1,4.3,75,0.00,,,0.00,,2013-07-23 07:16:00,
2013-07-23 03:22:00,83.2,86.7,30.06,SSW,202,2.7,2.7,75,0.00,,,0.00,,2013-07-23 07:22:00,
2013-07-23 03:27:00,83.3,86.8,30.06,South,180,2.0,4.3,76,0.00,,,0.00,,2013-07-23 07:27:00,
2013-07-23 03:32:00,83.3,86.7,30.06,South,180,3.6,5.1,76,0.00,,,0.00,,2013-07-23 07:32:00,
2013-07-23 03:37:00,83.3,86.7,30.06,South,180,4.5,6.0,76,0.00,,,0.00,,2013-07-23 07:37:00,
2013-07-23 03:42:00,83.2,86.7,30.05,South,180,4.0,4.9,76,0.00,,,0.00,,2013-07-23 07:42:00,
2013-07-23 03:47:00,83.2,86.7,30.05,South,180,3.4,6.5,76,0.00,,,0.00,,2013-07-23 07:47:00,
2013-07-23 03:52:00,83.1,86.6,30.05,SSW,202,4.5,4.9,76,0.00,,,0.00,,2013-07-23 07:52:00,
2013-07-23 03:57:00,83.1,86.7,30.05,SSW,202,3.4,4.7,76,0.00,,,0.00,,2013-07-23 07:57:00,
2013-07-23 04:02:00,83.1,86.6,30.05,SSW,202,3.4,6.7,76,0.00,,,0.00,,2013-07-23 08:02:00,
2013-07-23 04:07:00,83.0,86.6,30.05,SSW,202,2.7,4.3,76,0.00,,,0.00,,2013-07-23 08:07:00,
2013-07-23 04:12:00,83.1,86.6,30.05,SSW,202,3.1,5.4,76,0.00,,,0.00,,2013-07-23 08:12:00,
2013-07-23 04:17:00,83.0,86.6,30.05,SSW,202,2.5,3.6,76,0.00,,,0.00,,2013-07-23 08:17:00,
2013-07-23 04:22:00,83.0,86.6,30.05,SSW,202,3.6,6.0,76,0.00,,,0.00,,2013-07-23 08:22:00,
2013-07-23 04:27:00,83.0,86.5,30.05,SSW,202,3.4,4.3,76,0.00,,,0.00,,2013-07-23 08:27:00,
2013-07-23 04:32:00,82.9,86.5,30.05,SW,225,3.6,3.6,76,0.00,,,0.00,,2013-07-23 08:32:00,
2013-07-23 04:37:00,82.9,86.5,30.05,SSW,202,2.9,4.3,77,0.00,,,0.00,,2013-07-23 08:37:00,
2013-07-23 04:42:00,82.8,86.5,30.05,SSW,202,2.0,4.0,77,0.00,,,0.00,,2013-07-23 08:42:00,
2013-07-23 04:47:00,82.9,86.5,30.04,SSW,202,5.1,5.1,77,0.00,,,0.00,,2013-07-23 08:47:00,
2013-07-23 04:52:00,82.9,86.5,30.04,South,180,4.9,6.3,77,0.00,,,0.00,,2013-07-23 08:52:00,
2013-07-23 04:57:00,82.8,86.4,30.04,SSW,202,3.1,4.0,77,0.00,,,0.00,,2013-07-23 08:57:00,
2013-07-23 05:02:00,82.7,86.5,30.04,SSW,202,4.0,5.1,77,0.00,,,0.00,,2013-07-23 09:02:00,
2013-07-23 05:07:00,82.7,86.5,30.05,SSW,202,1.3,3.4,77,0.00,,,0.00,,2013-07-23 09:07:00,
2013-07-23 05:12:00,82.7,86.5,30.05,SSW,202,3.1,6.3,77,0.00,,,0.00,,2013-07-23 09:12:00,
2013-07-23 05:17:00,82.6,86.5,30.04,SSW,202,2.2,3.1,77,0.00,,,0.00,,2013-07-23 09:17:00,
2013-07-23 05:22:00,82.6,86.4,30.05,SW,225,2.9,3.8,77,0.00,,,0.00,,2013-07-23 09:22:00,
2013-07-23 05:27:00,82.6,86.5,30.05,SSW,202,2.5,6.0,78,0.00,,,0.00,,2013-07-23 09:27:00,
2013-07-23 05:32:00,82.5,86.4,30.05,SSW,202,2.5,4.9,78,0.00,,,0.00,,2013-07-23 09:32:00,
2013-07-23 05:37:00,82.4,86.4,30.05,SSW,202,2.7,3.1,78,0.00,,,0.00,,2013-07-23 09:37:00,
2013-07-23 05:42:00,82.6,86.4,30.05,SSW,202,0.0,2.0,77,0.00,,,0.00,,2013-07-23 09:42:00,
2013-07-23 05:47:00,82.5,86.4,30.05,SSW,202,2.2,2.2,78,0.00,,,0.00,,2013-07-23 09:47:00,
2013-07-23 05:52:00,82.6,86.4,30.05,SW,225,0.0,0.0,77,0.00,,,0.00,,2013-07-23 09:52:00,
2013-07-23 05:57:00,82.6,86.4,30.05,SW,225,0.7,0.7,78,0.00,,,0.00,,2013-07-23 09:57:00,
2013-07-23 06:02:00,82.7,86.4,30.05,SSW,202,0.0,0.0,77,0.00,,,0.00,,2013-07-23 10:02:00,
2013-07-23 06:07:00,82.7,86.4,30.05,WSW,247,0.0,2.0,77,0.00,,,0.00,,2013-07-23 10:07:00,
2013-07-23 06:12:00,82.7,86.4,30.05,West,270,0.0,0.0,77,0.00,,,0.00,,2013-07-23 10:12:00,
2013-07-23 06:17:00,82.7,86.4,30.06,WSW,247,0.0,1.6,77,0.00,,,0.00,,2013-07-23 10:17:00,
2013-07-23 06:22:00,82.6,86.4,30.06,SSW,202,0.9,1.6,77,0.00,,,0.00,,2013-07-23 10:22:00,
2013-07-23 06:27:00,82.5,86.4,30.06,SW,225,0.9,2.5,77,0.00,,,0.00,,2013-07-23 10:27:00,
2013-07-23 06:32:00,82.6,86.4,30.06,SW,225,1.1,2.2,78,0.00,,,0.00,,2013-07-23 10:32:00,
2013-07-23 06:37:00,82.5,86.4,30.07,SW,225,1.3,3.4,78,0.00,,,0.00,,2013-07-23 10:37:00,
2013-07-23 06:42:00,82.5,86.4,30.07,SW,225,0.9,3.1,78,0.00,,,0.00,,2013-07-23 10:42:00,
2013-07-23 06:47:00,82.6,86.4,30.07,SSW,202,2.0,3.4,78,0.00,,,0.00,,2013-07-23 10:47:00,
2013-07-23 06:52:00,82.6,86.4,30.07,South,180,1.8,2.7,78,0.00,,,0.00,,2013-07-23 10:52:00,
2013-07-23 06:57:00,82.7,86.4,30.07,SSW,202,2.5,3.8,78,0.00,,,0.00,,2013-07-23 10:57:00,
2013-07-23 07:02:00,82.6,86.4,30.07,SSW,202,3.6,4.5,79,0.00,,,0.00,,2013-07-23 11:02:00,
2013-07-23 07:07:00,82.6,86.3,30.07,SSW,202,2.2,4.7,79,0.00,,,0.00,,2013-07-23 11:07:00,
2013-07-23 07:12:00,82.9,86.4,30.07,SSW,202,2.9,3.6,79,0.00,,,0.00,,2013-07-23 11:12:00,
2013-07-23 07:17:00,83.0,86.4,30.07,SSW,202,4.0,5.1,78,0.00,,,0.00,,2013-07-23 11:17:00,
2013-07-23 07:22:00,83.0,86.4,30.07,SSW,202,3.4,4.7,79,0.00,,,0.00,,2013-07-23 11:22:00,
2013-07-23 07:27:00,83.5,86.3,30.08,SSW,202,5.4,6.5,79,0.00,,,0.00,,2013-07-23 11:27:00,
2013-07-23 07:32:00,84.1,86.4,30.08,SSW,202,4.5,5.4,78,0.00,,,0.00,,2013-07-23 11:32:00,
2013-07-23 07:38:00,84.8,86.4,30.07,SW,225,4.9,5.8,76,0.00,,,0.00,,2013-07-23 11:38:00,
2013-07-23 07:43:00,85.0,86.4,30.08,SSW,202,4.9,5.8,75,0.00,,,0.00,,2013-07-23 11:43:00,
2013-07-23 07:48:00,85.1,86.4,30.08,SSW,202,3.4,5.8,75,0.00,,,0.00,,2013-07-23 11:48:00,
2013-07-23 07:53:00,85.5,86.5,30.08,South,180,6.5,7.8,75,0.00,,,0.00,,2013-07-23 11:53:00,
2013-07-23 07:58:00,85.9,86.4,30.08,SSW,202,2.9,6.3,75,0.00,,,0.00,,2013-07-23 11:58:00,
2013-07-23 08:03:00,86.1,86.5,30.08,South,180,2.7,3.4,74,0.00,,,0.00,,2013-07-23 12:03:00,
2013-07-23 08:08:00,86.2,86.5,30.08,SSW,202,5.1,7.6,73,0.00,,,0.00,,2013-07-23 12:08:00,
2013-07-23 08:13:00,86.3,86.5,30.08,SW,225,4.5,5.4,72,0.00,,,0.00,,2013-07-23 12:13:00,
2013-07-23 08:18:00,86.3,86.6,30.08,SSW,202,5.6,10.7,72,0.00,,,0.00,,2013-07-23 12:18:00,
2013-07-23 08:23:00,86.3,86.6,30.08,SW,225,5.1,6.5,72,0.00,,,0.00,,2013-07-23 12:23:00,
2013-07-23 08:28:00,86.4,86.7,30.08,SSW,202,3.1,8.7,72,0.00,,,0.00,,2013-07-23 12:28:00,
2013-07-23 08:33:00,86.5,86.7,30.08,SW,225,7.2,7.2,72,0.00,,,0.00,,2013-07-23 12:33:00,
2013-07-23 08:38:00,86.7,86.7,30.08,SW,225,5.4,8.3,71,0.00,,,0.00,,2013-07-23 12:38:00,
2013-07-23 08:43:00,86.8,86.8,30.08,WSW,247,3.6,7.2,71,0.00,,,0.00,,2013-07-23 12:43:00,
2013-07-23 08:48:00,86.8,86.7,30.08,SW,225,4.0,7.8,70,0.00,,,0.00,,2013-07-23 12:48:00,
2013-07-23 08:53:00,87.1,86.8,30.08,SSW,202,6.5,6.5,69,0.00,,,0.00,,2013-07-23 12:53:00,
2013-07-23 08:58:00,87.1,86.8,30.08,SW,225,6.5,8.3,67,0.00,,,0.00,,2013-07-23 12:58:00,
2013-07-23 09:03:00,87.4,86.8,30.08,SSW,202,8.3,8.3,67,0.00,,,0.00,,2013-07-23 13:03:00,
2013-07-23 09:08:00,87.5,86.8,30.08,WSW,247,5.8,7.8,65,0.00,,,0.00,,2013-07-23 13:08:00,
2013-07-23 09:13:00,87.7,86.8,30.08,South,180,4.9,4.9,65,0.00,,,0.00,,2013-07-23 13:13:00,
2013-07-23 09:18:00,87.9,86.9,30.08,South,180,3.8,5.8,64,0.00,,,0.00,,2013-07-23 13:18:00,
2013-07-23 09:23:00,88.2,86.9,30.08,SSW,202,4.9,8.1,63,0.00,,,0.00,,2013-07-23 13:23:00,
2013-07-23 09:28:00,88.4,86.9,30.08,SW,225,6.5,10.1,61,0.00,,,0.00,,2013-07-23 13:28:00,
2013-07-23 09:33:00,88.4,87.0,30.08,SW,225,7.2,8.1,61,0.00,,,0.00,,2013-07-23 13:33:00,
2013-07-23 09:38:00,88.4,87.0,30.08,SW,225,6.3,9.4,63,0.00,,,0.00,,2013-07-23 13:38:00,
2013-07-23 09:43:00,88.1,86.9,30.08,SW,225,4.5,5.4,60,0.00,,,0.00,,2013-07-23 13:43:00,
2013-07-23 09:48:00,88.4,87.0,30.08,WSW,247,3.8,8.7,60,0.00,,,0.00,,2013-07-23 13:48:00,
2013-07-23 09:53:00,88.6,87.0,30.08,SW,225,0.9,6.7,59,0.00,,,0.00,,2013-07-23 13:53:00,
2013-07-23 09:58:00,88.9,87.0,30.08,SW,225,6.3,8.3,59,0.00,,,0.00,,2013-07-23 13:58:00,
2013-07-23 10:03:00,89.2,87.0,30.08,WSW,247,3.8,4.0,58,0.00,,,0.00,,2013-07-23 14:03:00,
2013-07-23 10:08:00,89.3,87.0,30.08,SW,225,7.8,8.9,57,0.00,,,0.00,,2013-07-23 14:08:00,
2013-07-23 10:13:00,89.3,87.1,30.08,SSW,202,4.5,5.8,58,0.00,,,0.00,,2013-07-23 14:13:00,
2013-07-23 10:18:00,89.5,87.0,30.08,SW,225,8.5,9.2,58,0.00,,,0.00,,2013-07-23 14:18:00,
2013-07-23 10:23:00,89.4,86.9,30.08,SSW,202,5.4,6.3,58,0.00,,,0.00,,2013-07-23 14:23:00,
2013-07-23 10:28:00,89.6,87.0,30.08,SSW,202,6.9,7.4,58,0.00,,,0.00,,2013-07-23 14:28:00,
2013-07-23 10:33:00,89.6,87.1,30.08,SW,225,7.6,8.1,56,0.00,,,0.00,,2013-07-23 14:33:00,
2013-07-23 10:38:00,89.6,87.1,30.08,WSW,247,3.1,6.7,56,0.00,,,0.00,,2013-07-23 14:38:00,
2013-07-23 10:43:00,89.8,87.2,30.08,WSW,247,4.3,4.3,56,0.00,,,0.00,,2013-07-23 14:43:00,
2013-07-23 10:48:00,90.3,87.2,30.08,West,270,2.5,5.6,57,0.00,,,0.00,,2013-07-23 14:48:00,
2013-07-23 10:53:00,90.3,87.1,30.08,West,270,2.9,4.3,56,0.00,,,0.00,,2013-07-23 14:53:00,
2013-07-23 10:58:00,90.6,87.2,30.07,South,180,0.0,1.1,56,0.00,,,0.00,,2013-07-23 14:58:00,
2013-07-23 11:03:00,90.8,87.3,30.07,WSW,247,6.3,7.4,54,0.00,,,0.00,,2013-07-23 15:03:00,
2013-07-23 11:09:00,90.8,87.4,30.08,SSW,202,6.5,8.5,53,0.00,,,0.00,,2013-07-23 15:09:00,
2013-07-23 11:14:00,90.6,87.4,30.07,WSW,247,6.7,9.4,50,0.00,,,0.00,,2013-07-23 15:14:00,
2013-07-23 11:19:00,90.5,87.4,30.07,SSW,202,2.0,2.7,53,0.00,,,0.00,,2013-07-23 15:19:00,
2013-07-23 11:24:00,90.8,87.4,30.08,SW,225,7.8,8.5,52,0.00,,,0.00,,2013-07-23 15:24:00,
2013-07-23 11:29:00,90.8,87.5,30.07,WSW,247,2.5,4.0,51,0.00,,,0.00,,2013-07-23 15:29:00,
2013-07-23 11:34:00,91.0,87.5,30.07,West,270,3.6,8.5,52,0.00,,,0.00,,2013-07-23 15:34:00,
2013-07-23 11:38:00,91.3,87.6,30.07,SSW,202,4.7,7.4,49,0.00,,,0.00,,2013-07-23 15:38:00,
2013-07-23 11:44:00,91.1,87.6,30.07,WSW,247,1.8,8.3,50,0.00,,,0.00,,2013-07-23 15:44:00,
2013-07-23 11:49:00,91.6,87.6,30.07,SSW,202,2.0,2.7,52,0.00,,,0.00,,2013-07-23 15:49:00,
2013-07-23 11:54:00,91.8,87.8,30.07,WSW,247,5.4,11.0,52,0.00,,,0.00,,2013-07-23 15:54:00,
2013-07-23 11:59:00,91.6,87.8,30.07,SW,225,7.8,8.7,50,0.00,,,0.00,,2013-07-23 15:59:00,
2013-07-23 12:04:00,91.5,87.8,30.07,WSW,247,9.4,11.0,51,0.00,,,0.00,,2013-07-23 16:04:00,
2013-07-23 12:09:00,91.5,87.8,30.06,SW,225,7.4,8.3,50,0.00,,,0.00,,2013-07-23 16:09:00,
2013-07-23 12:14:00,91.7,87.8,30.06,WNW,292,1.1,9.2,50,0.00,,,0.00,,2013-07-23 16:14:00,
2013-07-23 12:19:00,92.0,87.9,30.06,SW,225,4.5,4.5,50,0.00,,,0.00,,2013-07-23 16:19:00,
2013-07-23 12:24:00,91.9,87.9,30.06,SW,225,5.4,7.6,47,0.00,,,0.00,,2013-07-23 16:24:00,
2013-07-23 12:29:00,92.0,88.0,30.06,SSW,202,10.1,12.1,46,0.00,,,0.00,,2013-07-23 16:29:00,
2013-07-23 12:34:00,91.8,87.9,30.06,SSW,202,5.4,11.0,47,0.00,,,0.00,,2013-07-23 16:34:00,
2013-07-23 12:39:00,92.1,87.9,30.06,SSW,202,7.4,11.2,49,0.00,,,0.00,,2013-07-23 16:39:00,
2013-07-23 12:44:00,92.2,87.9,30.06,SW,225,3.4,13.4,48,0.00,,,0.00,,2013-07-23 16:44:00,
2013-07-23 12:49:00,92.4,87.8,30.05,SSW,202,7.8,7.8,47,0.00,,,0.00,,2013-07-23 16:49:00,
2013-07-23 12:54:00,92.5,87.8,30.05,SSW,202,4.3,11.2,47,0.00,,,0.00,,2013-07-23 16:54:00,
2013-07-23 12:59:00,92.6,87.7,30.05,WSW,247,5.1,10.5,47,0.00,,,0.00,,2013-07-23 16:59:00,
2013-07-23 13:04:00,92.6,87.7,30.05,WNW,292,5.6,6.0,49,0.00,,,0.00,,2013-07-23 17:04:00,
2013-07-23 13:09:00,92.9,87.7,30.05,WNW,292,1.6,8.3,48,0.00,,,0.00,,2013-07-23 17:09:00,
2013-07-23 13:14:00,93.0,87.7,30.04,WSW,247,10.7,13.0,46,0.00,,,0.00,,2013-07-23 17:14:00,
2013-07-23 13:19:00,92.5,87.8,30.04,WSW,247,10.5,13.0,46,0.00,,,0.00,,2013-07-23 17:19:00,
2013-07-23 13:24:00,92.6,87.8,30.04,SSW,202,0.0,0.7,46,0.00,,,0.00,,2013-07-23 17:24:00,
2013-07-23 13:29:00,93.2,87.9,30.04,West,270,3.6,8.3,46,0.00,,,0.00,,2013-07-23 17:29:00,
2013-07-23 13:34:00,93.7,87.8,30.04,WSW,247,7.8,8.5,46,0.00,,,0.00,,2013-07-23 17:34:00,
2013-07-23 13:39:00,93.3,87.8,30.04,West,270,6.3,6.7,45,0.00,,,0.00,,2013-07-23 17:39:00,
2013-07-23 13:44:00,93.6,87.9,30.04,West,270,4.3,13.0,44,0.00,,,0.00,,2013-07-23 17:44:00,
2013-07-23 13:49:00,93.7,87.9,30.03,SW,225,0.0,10.7,39,0.00,,,0.00,,2013-07-23 17:49:00,
2013-07-23 13:54:00,94.0,88.0,30.03,SW,225,9.4,9.4,42,0.00,,,0.00,,2013-07-23 17:54:00,
2013-07-23 13:59:00,93.9,88.0,30.03,WNW,292,5.8,7.4,42,0.00,,,0.00,,2013-07-23 17:59:00,
2013-07-23 14:04:00,94.2,88.0,30.03,West,270,4.3,9.6,42,0.00,,,0.00,,2013-07-23 18:04:00,
2013-07-23 14:10:00,94.4,88.1,30.03,WSW,247,5.6,10.3,40,0.00,,,0.00,,2013-07-23 18:10:00,
2013-07-23 14:15:00,94.3,88.1,30.03,WSW,247,3.4,8.3,39,0.00,,,0.00,,2013-07-23 18:15:00,
2013-07-23 14:20:00,94.5,88.0,30.03,SE,135,4.5,8.9,40,0.00,,,0.00,,2013-07-23 18:20:00,
2013-07-23 14:25:00,94.8,88.0,30.02,WSW,247,9.2,12.5,39,0.00,,,0.00,,2013-07-23 18:25:00,
2013-07-23 14:30:00,94.6,88.0,30.02,West,270,3.1,4.5,39,0.00,,,0.00,,2013-07-23 18:30:00,
2013-07-23 14:35:00,94.5,88.1,30.02,West,270,4.5,10.1,40,0.00,,,0.00,,2013-07-23 18:35:00,
2013-07-23 14:40:00,94.6,88.1,30.01,SW,225,7.6,12.3,41,0.00,,,0.00,,2013-07-23 18:40:00,
2013-07-23 14:45:00,94.8,88.1,30.01,WSW,247,8.1,10.7,41,0.00,,,0.00,,2013-07-23 18:45:00,
2013-07-23 14:50:00,94.8,88.1,30.01,NW,315,1.3,3.4,42,0.00,,,0.00,,2013-07-23 18:50:00,
2013-07-23 14:55:00,94.8,88.1,30.01,West,270,1.3,5.4,39,0.00,,,0.00,,2013-07-23 18:55:00,
2013-07-23 15:01:00,95.1,88.1,30.01,West,270,5.6,6.0,40,0.00,,,0.00,,2013-07-23 19:01:00,
2013-07-23 15:06:00,95.4,88.2,30.00,West,270,3.6,7.4,40,0.00,,,0.00,,2013-07-23 19:06:00,
2013-07-23 15:11:00,95.8,88.2,30.00,WNW,292,6.0,10.5,40,0.00,,,0.00,,2013-07-23 19:11:00,
2013-07-23 15:16:00,96.1,88.1,30.00,WSW,247,3.6,7.4,41,0.00,,,0.00,,2013-07-23 19:16:00,
2013-07-23 15:21:00,95.8,88.1,30.00,WNW,292,4.0,4.0,42,0.00,,,0.00,,2013-07-23 19:21:00,
2013-07-23 15:26:00,96.0,88.2,29.99,SSW,202,8.3,11.9,41,0.00,,,0.00,,2013-07-23 19:26:00,
2013-07-23 15:32:00,95.9,88.1,29.99,South,180,3.4,4.7,42,0.00,,,0.00,,2013-07-23 19:32:00,
2013-07-23 15:37:00,95.9,88.3,29.99,WSW,247,12.3,12.3,40,0.00,,,0.00,,2013-07-23 19:37:00,
2013-07-23 15:42:00,95.5,88.3,29.99,SW,225,7.6,10.7,41,0.00,,,0.00,,2013-07-23 19:42:00,
2013-07-23 15:47:00,95.5,88.3,29.98,WNW,292,3.4,5.4,41,0.00,,,0.00,,2013-07-23 19:47:00,
2013-07-23 15:52:00,95.6,88.3,29.98,West,270,2.5,8.7,43,0.00,,,0.00,,2013-07-23 19:52:00,
2013-07-23 15:58:00,95.7,88.3,29.98,WSW,247,0.0,0.0,42,0.00,,,0.00,,2013-07-23 19:58:00,
2013-07-23 16:03:00,96.2,88.2,29.98,West,270,4.9,9.4,42,0.00,,,0.00,,2013-07-23 20:03:00,
2013-07-23 16:08:00,96.2,87.9,29.98,WSW,247,0.0,7.6,41,0.00,,,0.00,,2013-07-23 20:08:00,
2013-07-23 16:13:00,96.1,88.4,29.98,NW,315,4.3,7.2,42,0.00,,,0.00,,2013-07-23 20:13:00,
2013-07-23 16:18:00,96.2,88.3,29.98,WNW,292,5.1,8.9,42,0.00,,,0.00,,2013-07-23 20:18:00,
2013-07-23 16:23:00,96.0,88.1,29.98,WSW,247,5.6,5.8,42,0.00,,,0.00,,2013-07-23 20:23:00,
2013-07-23 16:28:00,95.3,88.2,29.98,WSW,247,0.0,5.1,42,0.00,,,0.00,,2013-07-23 20:28:00,
2013-07-23 16:33:00,94.9,88.4,29.98,WNW,292,7.4,9.6,44,0.00,,,0.00,,2013-07-23 20:33:00,
2013-07-23 16:38:00,94.9,88.0,29.98,WNW,292,5.1,7.6,46,0.00,,,0.00,,2013-07-23 20:38:00,
2013-07-23 16:43:00,95.2,88.2,29.98,WNW,292,3.6,4.9,46,0.00,,,0.00,,2013-07-23 20:43:00,
2013-07-23 16:49:00,95.3,88.3,29.98,WNW,292,2.2,5.4,45,0.00,,,0.00,,2013-07-23 20:49:00,
2013-07-23 16:54:00,95.0,88.2,29.97,WSW,247,2.2,3.8,45,0.00,,,0.00,,2013-07-23 20:54:00,
2013-07-23 16:59:00,94.9,88.2,29.97,WNW,292,2.9,3.4,45,0.00,,,0.00,,2013-07-23 20:59:00,
2013-07-23 17:04:00,94.9,88.3,29.97,West,270,2.9,5.4,45,0.00,,,0.00,,2013-07-23 21:04:00,
2013-07-23 17:09:00,94.8,88.6,29.97,NW,315,7.4,14.1,46,0.00,,,0.00,,2013-07-23 21:09:00,
2013-07-23 17:14:00,94.6,88.6,29.97,NNW,337,3.6,6.5,46,0.00,,,0.00,,2013-07-23 21:14:00,
2013-07-23 17:19:00,94.8,88.6,29.97,NNW,337,7.8,12.5,46,0.00,,,0.00,,2013-07-23 21:19:00,
2013-07-23 17:24:00,94.8,88.6,29.97,NNW,337,9.2,9.2,46,0.00,,,0.00,,2013-07-23 21:24:00,
2013-07-23 17:29:00,94.7,88.3,29.97,NNW,337,7.8,10.3,46,0.00,,,0.00,,2013-07-23 21:29:00,
2013-07-23 17:34:00,94.6,88.6,29.97,NNW,337,6.3,11.4,46,0.00,,,0.00,,2013-07-23 21:34:00,
2013-07-23 17:39:00,94.6,88.6,29.97,North,0,12.3,12.5,46,0.00,,,0.00,,2013-07-23 21:39:00,
2013-07-23 17:44:00,94.3,88.5,29.97,NE,45,6.9,11.2,49,0.00,,,0.00,,2013-07-23 21:44:00,
2013-07-23 17:49:00,93.8,88.3,29.97,East,90,8.1,13.2,51,0.00,,,0.00,,2013-07-23 21:49:00,
2013-07-23 17:55:00,92.9,88.4,29.97,East,90,12.5,16.8,53,0.00,,,0.00,,2013-07-23 21:55:00,
2013-07-23 18:00:00,92.1,88.6,29.97,SE,135,8.9,11.9,54,0.00,,,0.00,,2013-07-23 22:00:00,
2013-07-23 18:05:00,91.8,88.8,29.97,ESE,112,10.5,12.3,56,0.00,,,0.00,,2013-07-23 22:05:00,
2013-07-23 18:10:00,91.8,88.7,29.97,ENE,67,8.5,11.2,56,0.00,,,0.00,,2013-07-23 22:10:00,
2013-07-23 18:15:00,92.0,89.0,29.97,ESE,112,5.1,11.4,56,0.00,,,0.00,,2013-07-23 22:15:00,
2013-07-23 18:20:00,91.9,88.9,29.97,East,90,4.7,8.7,55,0.00,,,0.00,,2013-07-23 22:20:00,
2013-07-23 18:25:00,92.0,88.8,29.97,ESE,112,3.8,7.2,55,0.00,,,0.00,,2013-07-23 22:25:00,
2013-07-23 18:30:00,92.3,88.7,29.97,ESE,112,2.0,8.3,54,0.00,,,0.00,,2013-07-23 22:30:00,
2013-07-23 18:36:00,92.4,88.8,29.97,SSE,157,9.8,12.8,54,0.00,,,0.00,,2013-07-23 22:36:00,
2013-07-23 18:41:00,92.1,88.9,29.97,SE,135,8.9,10.5,55,0.00,,,0.00,,2013-07-23 22:41:00,
2013-07-23 18:46:00,92.1,89.3,29.97,SSE,157,7.4,11.2,56,0.00,,,0.00,,2013-07-23 22:46:00,
2013-07-23 18:51:00,91.9,89.4,29.97,SE,135,7.6,9.8,56,0.00,,,0.00,,2013-07-23 22:51:00,
2013-07-23 18:56:00,91.8,89.0,29.97,SSE,157,3.4,4.3,56,0.00,,,0.00,,2013-07-23 22:56:00,
2013-07-23 19:01:00,91.7,89.2,29.97,SSE,157,8.5,9.4,57,0.00,,,0.00,,2013-07-23 23:01:00,
2013-07-23 19:06:00,91.6,89.1,29.97,SSE,157,7.2,8.9,56,0.00,,,0.00,,2013-07-23 23:06:00,
2013-07-23 19:11:00,91.5,89.4,29.97,SE,135,9.4,11.2,57,0.00,,,0.00,,2013-07-23 23:11:00,
2013-07-23 19:16:00,91.2,89.1,29.97,ESE,112,7.4,9.4,57,0.00,,,0.00,,2013-07-23 23:16:00,
2013-07-23 19:21:00,91.0,88.8,29.97,SE,135,4.0,7.6,58,0.00,,,0.00,,2013-07-23 23:21:00,
2013-07-23 19:26:00,91.1,88.9,29.97,SSE,157,12.5,13.4,58,0.00,,,0.00,,2013-07-23 23:26:00,
2013-07-23 19:31:00,90.8,89.1,29.97,SE,135,9.4,10.3,59,0.00,,,0.00,,2013-07-23 23:31:00,
2013-07-23 19:36:00,90.5,88.8,29.96,SSE,157,8.1,8.1,59,0.00,,,0.00,,2013-07-23 23:36:00,
2013-07-23 19:41:00,90.3,88.8,29.97,SSE,157,8.7,8.7,60,0.00,,,0.00,,2013-07-23 23:41:00,
2013-07-23 19:46:00,90.0,88.9,29.97,South,180,8.9,13.9,60,0.00,,,0.00,,2013-07-23 23:46:00,
2013-07-23 19:51:00,89.7,88.8,29.96,South,180,8.7,11.6,61,0.00,,,0.00,,2013-07-23 23:51:00,
2013-07-23 19:56:00,89.4,88.7,29.96,South,180,8.7,8.7,61,0.00,,,0.00,,2013-07-23 23:56:00,
2013-07-23 20:01:00,89.2,89.1,29.96,SSE,157,9.4,10.7,61,0.00,,,0.00,,2013-07-24 00:01:00,
2013-07-23 20:06:00,89.0,89.2,29.96,South,180,8.7,9.4,61,0.00,,,0.00,,2013-07-24 00:06:00,
2013-07-23 20:11:00,88.8,89.2,29.96,South,180,6.5,8.1,62,0.00,,,0.00,,2013-07-24 00:11:00,
2013-07-23 20:17:00,88.8,88.9,29.96,South,180,7.6,9.2,62,0.00,,,0.00,,2013-07-24 00:17:00,
2013-07-23 20:22:00,88.6,88.9,29.96,South,180,6.9,8.1,62,0.00,,,0.00,,2013-07-24 00:22:00,
2013-07-23 20:27:00,88.4,88.9,29.96,South,180,5.4,6.5,62,0.00,,,0.00,,2013-07-24 00:27:00,
2013-07-23 20:32:00,88.3,88.9,29.97,SE,135,6.9,9.2,62,0.00,,,0.00,,2013-07-24 00:32:00,
2013-07-23 20:37:00,88.2,88.8,29.97,SSE,157,7.2,8.5,63,0.00,,,0.00,,2013-07-24 00:37:00,
2013-07-23 20:42:00,88.1,88.8,29.97,South,180,9.8,11.6,63,0.00,,,0.00,,2013-07-24 00:42:00,
2013-07-23 20:47:00,87.9,88.8,29.96,SE,135,8.1,8.7,63,0.00,,,0.00,,2013-07-24 00:47:00,
2013-07-23 20:53:00,87.9,88.7,29.96,SSE,157,6.0,6.3,63,0.00,,,0.00,,2013-07-24 00:53:00,
2013-07-23 20:58:00,87.9,88.6,29.97,South,180,6.9,7.2,63,0.00,,,0.00,,2013-07-24 00:58:00,
2013-07-23 21:03:00,87.8,88.6,29.96,SSE,157,4.9,10.5,63,0.00,,,0.00,,2013-07-24 01:03:00,
2013-07-23 21:08:00,87.6,88.6,29.96,South,180,7.2,8.3,64,0.00,,,0.00,,2013-07-24 01:08:00,
2013-07-23 21:13:00,87.4,88.6,29.97,South,180,5.6,14.1,64,0.00,,,0.00,,2013-07-24 01:13:00,
2013-07-23 21:18:00,87.5,88.6,29.97,SSE,157,6.7,6.7,64,0.00,,,0.00,,2013-07-24 01:18:00,
2013-07-23 21:23:00,87.5,88.6,29.97,South,180,11.2,11.4,64,0.00,,,0.00,,2013-07-24 01:23:00,
2013-07-23 21:28:00,87.5,88.6,29.98,SSE,157,5.6,8.1,64,0.00,,,0.00,,2013-07-24 01:28:00,
2013-07-23 21:33:00,87.4,88.6,29.98,SSW,202,3.8,8.3,64,0.00,,,0.00,,2013-07-24 01:33:00,
2013-07-23 21:38:00,87.5,88.6,29.98,South,180,4.9,6.7,63,0.00,,,0.00,,2013-07-24 01:38:00,
2013-07-23 21:43:00,87.5,88.6,29.98,South,180,7.4,9.2,64,0.00,,,0.00,,2013-07-24 01:43:00,
2013-07-23 21:48:00,87.5,88.5,29.98,South,180,3.1,5.1,63,0.00,,,0.00,,2013-07-24 01:48:00,
2013-07-23 21:53:00,87.5,88.5,29.99,SSW,202,3.1,3.1,63,0.00,,,0.00,,2013-07-24 01:53:00,
2013-07-23 21:58:00,87.4,88.5,29.99,SSW,202,2.9,4.0,63,0.00,,,0.00,,2013-07-24 01:58:00,
2013-07-23 22:03:00,87.2,88.4,29.99,SSW,202,0.0,1.1,64,0.00,,,0.00,,2013-07-24 02:03:00,
2013-07-23 22:08:00,86.8,88.4,29.99,WSW,247,1.6,3.4,65,0.00,,,0.00,,2013-07-24 02:08:00,
2013-07-23 22:14:00,86.7,88.3,30.00,SW,225,6.7,8.5,66,0.00,,,0.00,,2013-07-24 02:14:00,
2013-07-23 22:19:00,86.4,88.3,29.99,South,180,6.9,9.8,67,0.00,,,0.00,,2013-07-24 02:19:00,
2013-07-23 22:24:00,86.2,88.3,30.00,South,180,4.9,4.9,67,0.00,,,0.00,,2013-07-24 02:24:00,
2013-07-23 22:29:00,86.0,88.3,29.99,South,180,4.7,7.6,68,0.00,,,0.00,,2013-07-24 02:29:00,
2013-07-23 22:34:00,86.0,88.3,29.99,SSW,202,3.6,9.2,68,0.00,,,0.00,,2013-07-24 02:34:00,
2013-07-23 22:39:00,86.0,88.3,29.99,SSW,202,6.9,12.5,68,0.00,,,0.00,,2013-07-24 02:39:00,
2013-07-23 22:44:00,85.9,88.2,29.99,SSW,202,10.1,10.7,69,0.00,,,0.00,,2013-07-24 02:44:00,
2013-07-23 22:50:00,85.9,88.2,30.00,SSW,202,3.8,13.6,69,0.00,,,0.00,,2013-07-24 02:50:00,
2013-07-23 22:55:00,85.8,88.2,30.00,South,180,8.1,12.5,69,0.00,,,0.00,,2013-07-24 02:55:00,
2013-07-23 23:00:00,85.8,88.2,30.00,SSW,202,5.1,11.9,69,0.00,,,0.00,,2013-07-24 03:00:00,
2013-07-23 23:05:00,85.7,88.2,30.00,South,180,7.4,13.2,69,0.00,,,0.00,,2013-07-24 03:05:00,
2013-07-23 23:10:00,85.5,88.2,30.00,South,180,6.9,10.3,70,0.00,,,0.00,,2013-07-24 03:10:00,
2013-07-23 23:16:00,85.3,88.1,30.00,SSW,202,5.6,13.6,71,0.00,,,0.00,,2013-07-24 03:16:00,
2013-07-23 23:21:00,85.3,88.1,30.01,SSW,202,7.4,10.5,71,0.00,,,0.00,,2013-07-24 03:21:00,
2013-07-23 23:26:00,85.2,88.1,30.01,SSW,202,5.8,9.4,71,0.00,,,0.00,,2013-07-24 03:26:00,
2013-07-23 23:31:00,85.1,88.0,30.01,SSW,202,9.4,12.1,72,0.00,,,0.00,,2013-07-24 03:31:00,
2013-07-23 23:36:00,85.1,88.0,30.01,SSW,202,11.0,11.0,72,0.00,,,0.00,,2013-07-24 03:36:00,
2013-07-23 23:41:00,85.1,88.0,30.01,SSW,202,9.6,12.5,73,0.00,,,0.00,,2013-07-24 03:41:00,
2013-07-23 23:46:00,85.1,88.0,30.01,SW,225,9.6,11.6,73,0.00,,,0.00,,2013-07-24 03:46:00,
2013-07-23 23:51:00,85.1,88.0,30.01,WSW,247,9.2,10.1,74,0.00,,,0.00,,2013-07-24 03:51:00,
2013-07-23 23:57:00,85.0,88.0,30.01,SSW,202,5.8,7.6,74,0.00,,,0.00,,2013-07-24 03:57:00,